createdAt,value
2018-12-11T00:00:49.679Z,4.80
2018-12-11T00:02:59.212Z,4.80
2018-12-11T00:05:02.888Z,4.70
2018-12-11T00:07:12.479Z,4.70
2018-12-11T00:09:16.808Z,4.70
2018-12-11T00:11:20.950Z,4.60
2018-12-11T00:13:31.292Z,4.60
2018-12-11T00:15:40.254Z,4.70
2018-12-11T00:17:44.603Z,4.70
2018-12-11T00:19:48.365Z,4.80
2018-12-11T00:21:52.362Z,4.80
2018-12-11T00:23:56.433Z,4.70
2018-12-11T00:26:00.313Z,4.70
2018-12-11T00:28:09.122Z,4.70
2018-12-11T00:30:17.919Z,4.70
2018-12-11T00:32:26.670Z,4.70
2018-12-11T00:34:30.711Z,4.70
2018-12-11T00:36:39.560Z,4.70
2018-12-11T00:38:43.521Z,4.70
2018-12-11T00:40:47.493Z,4.80
2018-12-11T00:42:56.153Z,4.80
2018-12-11T00:45:00.235Z,4.90
2018-12-11T00:47:06.290Z,4.90
2018-12-11T00:49:15.020Z,4.80
2018-12-11T00:51:19.197Z,4.80
2018-12-11T00:55:26.748Z,4.80
2018-12-11T00:57:30.509Z,4.80
2018-12-11T01:03:47.825Z,4.70
2018-12-11T01:05:51.823Z,4.70
2018-12-11T01:08:00.450Z,4.70
2018-12-11T01:10:09.717Z,4.70
2018-12-11T01:12:13.526Z,4.70
2018-12-11T01:14:17.231Z,4.70
2018-12-11T01:16:21.411Z,4.70
2018-12-11T01:18:29.860Z,4.70
2018-12-11T01:20:33.876Z,4.70
2018-12-11T01:22:37.776Z,4.70
2018-12-11T01:24:41.644Z,4.70
2018-12-11T01:26:45.675Z,4.70
2018-12-11T01:28:49.667Z,4.60
2018-12-11T01:30:53.649Z,4.60
2018-12-11T01:33:02.047Z,4.60
2018-12-11T01:35:06.153Z,4.60
2018-12-11T01:37:10.164Z,4.60
2018-12-11T01:39:18.875Z,4.60
2018-12-11T01:41:27.775Z,4.50
2018-12-11T01:43:31.968Z,4.50
2018-12-11T01:45:35.745Z,4.50
2018-12-11T01:47:39.790Z,4.50
2018-12-11T01:49:43.712Z,4.50
2018-12-11T01:51:47.659Z,4.50
2018-12-11T01:53:51.439Z,4.50
2018-12-11T01:56:00.068Z,4.50
2018-12-11T01:58:04.015Z,4.50
2018-12-11T02:00:08.639Z,4.50
2018-12-11T02:02:12.960Z,4.50
2018-12-11T02:04:17.137Z,4.50
2018-12-11T02:06:25.816Z,4.50
2018-12-11T02:08:29.669Z,4.60
2018-12-11T02:10:33.648Z,4.60
2018-12-11T02:12:37.711Z,4.70
2018-12-11T02:14:46.606Z,4.80
2018-12-11T02:16:50.811Z,4.90
2018-12-11T02:18:59.579Z,4.90
2018-12-11T02:21:03.801Z,5.00
2018-12-11T02:23:12.629Z,5.00
2018-12-11T02:25:16.750Z,4.90
2018-12-11T02:27:20.752Z,4.80
2018-12-11T02:29:24.719Z,4.80
2018-12-11T02:31:33.433Z,4.70
2018-12-11T02:33:42.418Z,4.70
2018-12-11T02:35:51.237Z,4.60
2018-12-11T02:37:57.338Z,4.60
2018-12-11T02:40:06.146Z,4.60
2018-12-11T02:42:15.861Z,4.60
2018-12-11T02:44:20.069Z,4.60
2018-12-11T02:46:34.601Z,4.60
2018-12-11T02:48:48.809Z,4.60
2018-12-11T02:50:58.352Z,4.60
2018-12-11T02:53:02.355Z,4.70
2018-12-11T02:55:06.245Z,4.70
2018-12-11T02:57:14.887Z,4.80
2018-12-11T02:59:23.730Z,4.70
2018-12-11T03:01:27.800Z,4.70
2018-12-11T03:03:29.663Z,4.60
2018-12-11T03:05:38.285Z,4.60
2018-12-11T03:07:47.306Z,4.50
2018-12-11T03:09:51.419Z,4.50
2018-12-11T03:12:00.132Z,4.40
2018-12-11T03:14:08.747Z,4.30
2018-12-11T03:16:17.532Z,4.30
2018-12-11T03:18:26.269Z,4.20
2018-12-11T03:20:35.063Z,4.10
2018-12-11T03:22:43.713Z,4.20
2018-12-11T03:24:52.526Z,4.10
2018-12-11T03:27:01.326Z,4.10
2018-12-11T03:29:10.104Z,4.00
2018-12-11T03:31:18.896Z,3.90
2018-12-11T03:33:27.576Z,3.90
2018-12-11T03:35:31.395Z,4.00
2018-12-11T03:37:35.437Z,4.10
2018-12-11T03:39:44.373Z,4.10
2018-12-11T03:41:50.268Z,4.10
2018-12-11T03:43:54.408Z,4.10
2018-12-11T03:45:58.187Z,4.10
2018-12-11T03:48:04.536Z,4.00
2018-12-11T03:50:08.572Z,4.00
2018-12-11T03:52:21.446Z,4.00
2018-12-11T03:54:23.848Z,4.00
2018-12-11T03:56:28.501Z,3.90
2018-12-11T03:58:32.416Z,3.90
2018-12-11T04:00:36.358Z,4.10
2018-12-11T04:02:40.254Z,4.10
2018-12-11T04:06:52.762Z,4.20
2018-12-11T04:08:56.770Z,4.20
2018-12-11T04:13:21.229Z,4.20
2018-12-11T04:15:30.127Z,4.20
2018-12-11T04:17:38.825Z,4.20
2018-12-11T04:19:48.814Z,4.20
2018-12-11T04:21:57.517Z,4.10
2018-12-11T04:24:01.314Z,4.10
2018-12-11T04:26:09.979Z,4.10
2018-12-11T04:28:14.259Z,4.10
2018-12-11T04:30:19.978Z,4.10
2018-12-11T04:32:28.761Z,4.10
2018-12-11T04:34:37.505Z,4.10
2018-12-11T04:36:46.305Z,4.10
2018-12-11T04:38:55.300Z,4.10
2018-12-11T04:40:59.620Z,4.10
2018-12-11T04:43:03.400Z,4.10
2018-12-11T04:45:07.599Z,4.10
2018-12-11T04:47:11.431Z,4.10
2018-12-11T04:49:19.955Z,4.00
2018-12-11T04:51:28.774Z,4.00
2018-12-11T04:53:32.872Z,4.10
2018-12-11T04:55:36.749Z,4.10
2018-12-11T04:57:45.443Z,4.10
2018-12-11T04:59:54.133Z,4.10
2018-12-11T05:02:00.288Z,4.10
2018-12-11T05:04:10.091Z,4.10
2018-12-11T05:08:18.131Z,4.10
2018-12-11T05:10:21.787Z,4.00
2018-12-11T05:12:25.763Z,4.00
2018-12-11T05:14:29.644Z,4.00
2018-12-11T05:16:33.781Z,4.00
2018-12-11T05:18:42.435Z,4.10
2018-12-11T05:20:51.201Z,4.10
2018-12-11T05:22:59.829Z,4.10
2018-12-11T05:25:08.656Z,4.00
2018-12-11T05:27:14.939Z,4.00
2018-12-11T05:29:20.543Z,3.90
2018-12-11T05:31:29.192Z,3.90
2018-12-11T05:33:33.098Z,3.90
2018-12-11T05:35:36.797Z,3.90
2018-12-11T05:37:40.813Z,3.80
2018-12-11T05:39:49.550Z,3.80
2018-12-11T05:41:58.313Z,3.80
2018-12-11T05:44:07.104Z,3.80
2018-12-11T05:46:10.949Z,3.80
2018-12-11T05:48:14.640Z,3.80
2018-12-11T05:50:23.473Z,3.70
2018-12-11T05:52:27.507Z,3.80
2018-12-11T05:54:31.504Z,3.80
2018-12-11T05:56:35.256Z,3.70
2018-12-11T05:58:39.137Z,3.70
2018-12-11T06:00:43.024Z,3.70
2018-12-11T06:02:51.612Z,3.80
2018-12-11T06:04:55.792Z,3.80
2018-12-11T06:09:08.170Z,3.90
2018-12-11T06:11:12.379Z,3.90
2018-12-11T06:13:16.591Z,3.90
2018-12-11T06:15:25.912Z,3.80
2018-12-11T06:17:29.932Z,3.90
2018-12-11T06:19:34.042Z,3.80
2018-12-11T06:21:37.959Z,3.70
2018-12-11T06:23:41.600Z,3.80
2018-12-11T06:25:45.461Z,3.70
2018-12-11T06:27:49.161Z,3.70
2018-12-11T06:29:53.028Z,3.70
2018-12-11T06:31:57.156Z,3.60
2018-12-11T06:34:04.041Z,3.60
2018-12-11T06:36:08.143Z,3.60
2018-12-11T06:38:14.015Z,3.50
2018-12-11T06:40:17.920Z,3.60
2018-12-11T06:42:26.572Z,3.60
2018-12-11T06:44:30.643Z,3.60
2018-12-11T06:46:39.497Z,3.50
2018-12-11T06:48:43.663Z,3.50
2018-12-11T06:50:47.671Z,3.50
2018-12-11T06:52:51.649Z,3.40
2018-12-11T06:55:00.265Z,3.50
2018-12-11T06:57:04.637Z,3.40
2018-12-11T06:59:08.529Z,3.40
2018-12-11T07:01:17.263Z,3.40
2018-12-11T07:03:21.366Z,3.40
2018-12-11T07:05:25.068Z,3.40
2018-12-11T07:07:29.036Z,3.30
2018-12-11T07:09:37.801Z,3.50
2018-12-11T07:11:43.891Z,3.50
2018-12-11T07:20:00.158Z,3.60
2018-12-11T07:22:05.983Z,3.70
2018-12-11T07:24:14.639Z,3.70
2018-12-11T07:26:18.825Z,3.70
2018-12-11T07:28:27.593Z,3.80
2018-12-11T07:30:36.240Z,3.80
2018-12-11T07:32:45.308Z,3.80
2018-12-11T07:34:50.188Z,3.90
2018-12-11T07:36:54.281Z,3.90
2018-12-11T07:39:04.612Z,3.90
2018-12-11T07:41:08.176Z,3.90
2018-12-11T07:43:16.805Z,3.90
2018-12-11T07:45:22.389Z,3.90
2018-12-11T07:47:26.752Z,4.00
2018-12-11T07:49:35.726Z,4.00
2018-12-11T07:51:41.566Z,3.90
2018-12-11T07:53:45.545Z,3.90
2018-12-11T07:55:49.331Z,3.90
2018-12-11T07:57:57.695Z,3.90
2018-12-11T08:00:01.730Z,3.90
2018-12-11T08:02:07.814Z,3.90
2018-12-11T08:04:11.710Z,4.00
2018-12-11T08:06:15.600Z,4.00
2018-12-11T08:08:24.316Z,3.90
2018-12-11T08:10:33.365Z,3.90
2018-12-11T08:12:37.422Z,3.90
2018-12-11T08:14:46.322Z,3.90
2018-12-11T08:16:50.437Z,3.90
2018-12-11T08:18:54.750Z,3.90
2018-12-11T08:21:00.315Z,3.90
2018-12-11T08:23:08.832Z,3.90
2018-12-11T08:25:12.905Z,3.90
2018-12-11T08:27:18.827Z,3.90
2018-12-11T08:29:27.608Z,3.90
2018-12-11T08:31:36.514Z,4.00
2018-12-11T08:33:40.501Z,4.00
2018-12-11T08:35:49.253Z,4.00
2018-12-11T08:37:53.268Z,4.00
2018-12-11T08:40:02.348Z,4.10
2018-12-11T08:42:08.175Z,4.10
2018-12-11T08:44:11.744Z,4.20
2018-12-11T08:46:20.272Z,4.10
2018-12-11T08:48:24.289Z,4.10
2018-12-11T08:50:27.949Z,4.10
2018-12-11T08:52:32.056Z,4.20
2018-12-11T08:54:36.074Z,4.30
2018-12-11T08:56:44.701Z,4.30
2018-12-11T08:58:53.598Z,4.30
2018-12-11T09:00:57.919Z,4.30
2018-12-11T09:03:06.398Z,4.30
2018-12-11T09:05:10.499Z,4.30
2018-12-11T09:07:14.497Z,4.40
2018-12-11T09:09:18.322Z,4.40
2018-12-11T09:11:45.742Z,4.50
2018-12-11T09:13:52.135Z,4.50
2018-12-11T09:15:55.962Z,4.60
2018-12-11T09:18:04.710Z,4.70
2018-12-11T09:20:09.049Z,4.70
2018-12-11T09:22:17.694Z,4.70
2018-12-11T09:24:26.460Z,4.70
2018-12-11T09:26:30.556Z,4.80
2018-12-11T09:28:34.221Z,4.80
2018-12-11T09:30:42.877Z,4.90
2018-12-11T09:32:47.119Z,4.90
2018-12-11T09:34:55.685Z,4.90
2018-12-11T09:37:01.856Z,5.00
2018-12-11T09:39:06.504Z,5.10
2018-12-11T09:41:10.661Z,5.10
2018-12-11T09:43:14.584Z,5.10
2018-12-11T09:45:18.436Z,5.10
2018-12-11T09:47:22.408Z,5.10
2018-12-11T09:49:26.430Z,5.20
2018-12-11T09:51:30.386Z,5.20
2018-12-11T09:53:39.070Z,5.20
2018-12-11T09:55:43.205Z,5.30
2018-12-11T09:57:51.770Z,5.30
2018-12-11T10:00:00.675Z,5.30
2018-12-11T10:02:06.917Z,5.30
2018-12-11T10:04:10.727Z,5.30
2018-12-11T10:06:14.548Z,5.30
2018-12-11T10:08:19.648Z,5.30
2018-12-11T10:10:23.350Z,5.30
2018-12-11T10:12:32.109Z,5.30
2018-12-11T10:14:36.037Z,5.40
2018-12-11T10:16:40.103Z,5.40
2018-12-11T10:18:44.087Z,5.40
2018-12-11T10:20:52.692Z,5.40
2018-12-11T10:23:02.449Z,5.50
2018-12-11T10:25:07.770Z,5.40
2018-12-11T10:27:11.736Z,5.50
2018-12-11T10:29:20.409Z,5.50
2018-12-11T10:31:24.481Z,5.60
2018-12-11T10:33:34.795Z,5.70
2018-12-11T10:35:43.727Z,5.90
2018-12-11T10:37:47.969Z,6.00
2018-12-11T10:39:56.596Z,6.20
2018-12-11T10:42:05.752Z,6.30
2018-12-11T10:44:09.616Z,6.40
2018-12-11T10:46:18.146Z,6.30
2018-12-11T10:48:28.049Z,6.40
2018-12-11T10:50:36.835Z,6.50
2018-12-11T10:52:45.685Z,6.50
2018-12-11T10:54:54.464Z,6.40
2018-12-11T10:57:03.300Z,6.40
2018-12-11T10:59:07.708Z,6.40
2018-12-11T11:01:17.968Z,6.30
2018-12-11T11:03:26.422Z,6.30
2018-12-11T11:05:35.489Z,6.30
2018-12-11T11:07:39.778Z,6.30
2018-12-11T11:09:48.309Z,6.30
2018-12-11T11:11:52.530Z,6.30
2018-12-11T11:14:01.131Z,6.40
2018-12-11T11:16:11.944Z,6.50
2018-12-11T11:18:20.904Z,6.70
2018-12-11T11:20:29.793Z,6.90
2018-12-11T11:22:33.862Z,7.00
2018-12-11T11:24:37.736Z,7.00
2018-12-11T11:26:46.588Z,7.00
2018-12-11T11:28:55.305Z,6.90
2018-12-11T11:30:59.479Z,7.00
2018-12-11T11:33:03.241Z,7.00
2018-12-11T11:35:11.899Z,7.20
2018-12-11T11:37:20.704Z,7.30
2018-12-11T11:39:30.150Z,7.30
2018-12-11T11:41:33.764Z,7.30
2018-12-11T11:43:37.622Z,7.30
2018-12-11T11:45:46.382Z,7.30
2018-12-11T11:47:56.011Z,7.40
2018-12-11T11:50:07.015Z,7.50
2018-12-11T11:52:10.986Z,7.60
2018-12-11T11:54:14.787Z,7.50
2018-12-11T11:56:23.822Z,7.40
2018-12-11T11:58:32.409Z,7.30
2018-12-11T12:00:36.522Z,7.40
2018-12-11T12:02:46.211Z,7.40
2018-12-11T12:04:50.375Z,7.40
2018-12-11T12:06:59.129Z,7.30
2018-12-11T12:09:06.179Z,7.20
2018-12-11T12:11:10.124Z,7.20
2018-12-11T12:13:18.728Z,7.20
2018-12-11T12:15:28.355Z,7.10
2018-12-11T12:17:32.293Z,7.10
2018-12-11T12:19:40.922Z,7.10
2018-12-11T12:21:49.560Z,7.40
2018-12-11T12:23:53.694Z,7.60
2018-12-11T12:25:57.562Z,8.00
2018-12-11T12:30:10.002Z,8.40
2018-12-11T12:32:14.108Z,8.50
2018-12-11T12:34:18.166Z,8.60
2018-12-11T12:36:26.708Z,8.30
2018-12-11T12:38:32.877Z,8.20
2018-12-11T12:40:41.301Z,8.00
2018-12-11T12:42:51.104Z,7.90
2018-12-11T12:45:00.096Z,7.70
2018-12-11T12:47:06.248Z,7.60
2018-12-11T12:49:14.776Z,7.50
2018-12-11T12:51:18.907Z,7.40
2018-12-11T12:53:27.571Z,7.40
2018-12-11T12:55:31.563Z,7.40
2018-12-11T12:57:40.139Z,7.40
2018-12-11T12:59:44.273Z,7.50
2018-12-11T13:01:52.813Z,7.50
2018-12-11T13:03:56.924Z,7.60
2018-12-11T13:06:00.778Z,8.80
2018-12-11T13:08:09.355Z,9.30
2018-12-11T13:10:13.604Z,9.80
2018-12-11T13:12:19.476Z,9.80
2018-12-11T13:14:23.452Z,9.20
2018-12-11T13:16:32.178Z,8.50
2018-12-11T13:18:41.003Z,8.20
2018-12-11T13:20:50.458Z,8.10
2018-12-11T13:22:53.870Z,7.90
2018-12-11T13:24:57.952Z,8.00
2018-12-11T13:27:03.692Z,8.00
2018-12-11T13:29:12.253Z,7.90
2018-12-11T13:31:16.583Z,7.90
2018-12-11T13:33:20.397Z,7.80
2018-12-11T13:35:24.199Z,7.70
2018-12-11T13:37:32.868Z,7.70
2018-12-11T13:39:36.807Z,7.60
2018-12-11T13:41:45.464Z,7.60
2018-12-11T13:43:49.797Z,7.40
2018-12-11T13:45:53.284Z,7.30
2018-12-11T13:48:01.841Z,7.20
2018-12-11T13:50:10.545Z,6.90
2018-12-11T13:52:20.884Z,6.80
2018-12-11T13:54:29.556Z,6.70
2018-12-11T13:56:33.630Z,6.70
2018-12-11T13:58:42.149Z,6.60
2018-12-11T14:00:50.914Z,6.60
2018-12-11T14:02:54.988Z,6.50
2018-12-11T14:04:58.980Z,6.50
2018-12-11T14:07:07.664Z,6.40
2018-12-11T14:09:17.067Z,6.40
2018-12-11T14:13:48.888Z,6.20
2018-12-11T14:15:57.868Z,6.20
2018-12-11T14:18:01.848Z,6.10
2018-12-11T14:20:10.410Z,6.10
2018-12-11T14:22:19.128Z,6.10
2018-12-11T14:24:25.249Z,6.10
2018-12-11T14:26:29.030Z,6.10
2018-12-11T14:28:37.699Z,6.10
2018-12-11T14:32:44.710Z,5.90
2018-12-11T14:34:53.476Z,6.00
2018-12-11T14:36:57.582Z,5.90
2018-12-11T14:39:06.884Z,6.00
2018-12-11T14:41:10.250Z,6.00
2018-12-11T14:43:20.053Z,6.10
2018-12-11T14:45:24.218Z,6.10
2018-12-11T14:47:28.305Z,6.00
2018-12-11T14:49:36.947Z,6.10
2018-12-11T14:51:45.696Z,6.00
2018-12-11T14:53:49.859Z,6.00
2018-12-11T14:55:53.768Z,6.00
2018-12-11T14:57:57.963Z,5.90
2018-12-11T15:00:01.909Z,5.90
2018-12-11T15:02:07.797Z,5.90
2018-12-11T15:04:16.461Z,5.90
2018-12-11T15:06:20.588Z,5.90
2018-12-11T15:08:24.766Z,5.80
2018-12-11T15:10:28.695Z,5.80
2018-12-11T15:12:37.189Z,5.70
2018-12-11T15:14:41.332Z,5.60
2018-12-11T15:16:50.223Z,5.60
2018-12-11T15:18:54.310Z,5.50
2018-12-11T15:20:58.069Z,5.50
2018-12-11T15:23:02.127Z,5.40
2018-12-11T15:25:06.072Z,5.30
2018-12-11T15:27:14.807Z,5.30
2018-12-11T15:29:23.644Z,5.20
2018-12-11T15:33:30.613Z,5.10
2018-12-11T15:35:34.632Z,5.00
2018-12-11T15:37:38.576Z,5.00
2018-12-11T15:39:47.180Z,4.90
2018-12-11T15:41:55.934Z,4.90
2018-12-11T15:44:04.835Z,4.80
2018-12-11T15:46:08.943Z,4.80
2018-12-11T15:48:12.968Z,4.80
2018-12-11T15:50:21.509Z,4.80
2018-12-11T15:52:25.716Z,4.80
2018-12-11T15:54:29.627Z,4.90
2018-12-11T15:56:33.605Z,4.90
2018-12-11T15:58:37.461Z,4.90
2018-12-11T16:00:46.207Z,4.90
2018-12-11T16:02:50.287Z,4.90
2018-12-11T16:04:54.185Z,5.00
2018-12-11T16:07:02.854Z,5.00
2018-12-11T16:09:09.587Z,4.90
2018-12-11T16:11:18.626Z,4.80
2018-12-11T16:13:22.413Z,4.70
2018-12-11T16:15:31.044Z,4.60
2018-12-11T16:17:35.143Z,4.60
2018-12-11T16:19:43.730Z,4.50
2018-12-11T16:21:47.837Z,4.40
2018-12-11T16:23:51.597Z,4.30
2018-12-11T16:25:55.486Z,4.30
2018-12-11T16:27:59.395Z,4.30
2018-12-11T16:30:08.511Z,4.20
2018-12-11T16:34:20.702Z,4.10
2018-12-11T16:36:29.681Z,4.10
2018-12-11T16:38:33.552Z,4.00
2018-12-11T16:40:42.406Z,3.90
2018-12-11T16:42:46.326Z,3.90
2018-12-11T16:44:50.096Z,3.90
2018-12-11T16:46:58.874Z,3.80
2018-12-11T16:49:07.735Z,3.80
2018-12-11T16:51:11.912Z,3.90
2018-12-11T16:53:20.528Z,3.80
2018-12-11T16:55:24.600Z,3.80
2018-12-11T16:57:33.353Z,3.70
2018-12-11T16:59:42.089Z,3.60
2018-12-11T17:01:48.315Z,3.60
2018-12-11T17:03:52.312Z,3.60
2018-12-11T17:05:56.299Z,3.60
2018-12-11T17:08:00.365Z,3.40
2018-12-11T17:10:05.075Z,3.40
2018-12-11T17:12:09.662Z,3.40
2018-12-11T17:14:13.192Z,3.40
2018-12-11T17:16:17.058Z,3.40
2018-12-11T17:18:25.665Z,3.30
2018-12-11T17:20:34.696Z,3.20
2018-12-11T17:22:38.400Z,3.20
2018-12-11T17:24:47.013Z,3.10
2018-12-11T17:26:50.872Z,3.10
2018-12-11T17:28:59.696Z,3.10
2018-12-11T17:31:03.802Z,3.20
2018-12-11T17:33:12.655Z,3.00
2018-12-11T17:35:21.379Z,3.00
2018-12-11T17:37:25.644Z,2.80
2018-12-11T17:39:34.543Z,2.80
2018-12-11T17:41:38.299Z,2.80
2018-12-11T17:43:47.097Z,2.90
2018-12-11T17:45:55.803Z,3.00
2018-12-11T17:48:05.475Z,2.90
2018-12-11T17:50:09.674Z,2.90
2018-12-11T17:52:18.283Z,2.90
2018-12-11T17:54:27.057Z,2.90
2018-12-11T17:56:31.089Z,2.90
2018-12-11T17:58:34.944Z,2.80
2018-12-11T18:00:43.880Z,2.70
2018-12-11T18:02:52.673Z,2.60
2018-12-11T18:05:01.266Z,2.60
2018-12-11T18:07:07.352Z,2.70
2018-12-11T18:09:16.085Z,2.60
2018-12-11T18:11:20.117Z,2.60
2018-12-11T18:13:24.056Z,2.60
2018-12-11T18:15:32.716Z,2.50
2018-12-11T18:17:41.389Z,2.50
2018-12-11T18:19:50.277Z,2.50
2018-12-11T18:21:54.332Z,2.60
2018-12-11T18:23:58.365Z,2.40
2018-12-11T18:26:07.144Z,2.60
2018-12-11T18:28:11.333Z,2.60
2018-12-11T18:30:20.065Z,2.50
2018-12-11T18:32:29.145Z,2.70
2018-12-11T18:34:35.224Z,2.70
2018-12-11T18:36:44.221Z,2.50
2018-12-11T18:38:47.971Z,2.60
2018-12-11T18:40:51.843Z,2.60
2018-12-11T18:43:00.434Z,2.60
2018-12-11T18:45:09.339Z,2.80
2018-12-11T18:47:13.448Z,2.90
2018-12-11T18:49:21.754Z,2.90
2018-12-11T18:51:25.713Z,3.00
2018-12-11T18:53:31.824Z,2.80
2018-12-11T18:55:40.380Z,2.70
2018-12-11T18:57:49.036Z,2.80
2018-12-11T18:59:57.706Z,2.60
2018-12-11T19:02:03.736Z,2.60
2018-12-11T19:04:07.700Z,2.60
2018-12-11T19:06:11.392Z,2.50
2018-12-11T19:08:15.341Z,2.30
2018-12-11T19:10:19.390Z,2.40
2018-12-11T19:12:27.974Z,2.30
2018-12-11T19:14:37.003Z,2.20
2018-12-11T19:16:41.132Z,2.10
2018-12-11T19:18:49.752Z,2.20
2018-12-11T19:20:58.698Z,2.40
2018-12-11T19:23:06.808Z,2.50
2018-12-11T19:25:14.708Z,2.50
2018-12-11T19:27:23.374Z,2.60
2018-12-11T19:29:32.123Z,2.70
2018-12-11T19:31:36.220Z,2.70
2018-12-11T19:33:39.961Z,2.80
2018-12-11T19:35:45.755Z,2.70
2018-12-11T19:37:54.377Z,2.70
2018-12-11T19:40:02.110Z,2.70
2018-12-11T19:42:06.352Z,2.70
2018-12-11T19:44:15.250Z,2.60
2018-12-11T19:46:19.263Z,2.50
2018-12-11T19:48:23.261Z,2.50
2018-12-11T19:50:31.979Z,2.50
2018-12-11T19:52:39.635Z,2.40
2018-12-11T19:54:41.821Z,2.30
2018-12-11T19:56:50.599Z,2.30
2018-12-11T19:58:59.427Z,2.20
2018-12-11T20:01:03.699Z,2.30
2018-12-11T20:03:12.140Z,2.40
2018-12-11T20:05:18.258Z,2.30
2018-12-11T20:07:26.944Z,2.20
2018-12-11T20:09:31.044Z,2.20
2018-12-11T20:11:36.960Z,2.30
2018-12-11T20:13:45.539Z,2.30
2018-12-11T20:15:55.244Z,2.30
2018-12-11T20:17:59.460Z,2.30
2018-12-11T20:20:06.558Z,2.30
2018-12-11T20:22:10.189Z,2.30
2018-12-11T20:24:14.359Z,2.20
2018-12-11T20:26:20.063Z,2.20
2018-12-11T20:28:28.599Z,2.10
2018-12-11T20:30:32.813Z,2.10
2018-12-11T20:32:36.571Z,2.20
2018-12-11T20:34:40.435Z,2.30
2018-12-11T20:36:44.839Z,2.30
2018-12-11T20:38:49.381Z,2.40
2018-12-11T20:40:58.240Z,2.50
2018-12-11T20:43:07.240Z,2.60
2018-12-11T20:45:11.126Z,2.70
2018-12-11T20:47:20.020Z,2.70
2018-12-11T20:49:24.142Z,2.80
2018-12-11T20:51:28.128Z,2.90
2018-12-11T20:53:37.079Z,2.80
2018-12-11T20:55:40.968Z,2.80
2018-12-11T20:57:44.940Z,2.80
2018-12-11T20:59:53.736Z,2.80
2018-12-11T21:02:02.573Z,2.60
2018-12-11T21:04:11.625Z,2.60
2018-12-11T21:06:15.905Z,2.70
2018-12-11T21:08:19.904Z,2.70
2018-12-11T21:10:23.539Z,2.80
2018-12-11T21:12:27.340Z,2.80
2018-12-11T21:14:31.248Z,2.80
2018-12-11T21:16:35.314Z,2.90
2018-12-11T21:18:39.241Z,3.00
2018-12-11T21:20:48.892Z,3.00
2018-12-11T21:22:53.073Z,3.00
2018-12-11T21:25:02.005Z,3.00
2018-12-11T21:27:05.877Z,3.00
2018-12-11T21:29:10.207Z,3.00
2018-12-11T21:31:13.939Z,2.90
2018-12-11T21:33:17.844Z,2.90
2018-12-11T21:35:21.753Z,2.80
2018-12-11T21:37:25.611Z,2.80
2018-12-11T21:43:39.677Z,2.60
2018-12-11T21:45:43.570Z,2.60
2018-12-11T21:47:52.504Z,2.60
2018-12-11T21:49:56.479Z,2.60
2018-12-11T21:52:05.298Z,2.50
2018-12-11T21:54:09.167Z,2.50
2018-12-11T21:56:17.948Z,2.60
2018-12-11T21:58:21.959Z,2.60
2018-12-11T22:00:25.783Z,2.50
2018-12-11T22:02:29.702Z,2.60
2018-12-11T22:04:38.402Z,2.60
2018-12-11T22:06:42.531Z,2.60
2018-12-11T22:08:46.396Z,2.60
2018-12-11T22:10:50.272Z,2.60
2018-12-11T22:12:54.378Z,2.60
2018-12-11T22:15:04.862Z,2.60
2018-12-11T22:17:08.953Z,2.70
2018-12-11T22:19:12.832Z,2.70
2018-12-11T22:21:22.544Z,2.80
2018-12-11T22:23:26.442Z,2.70
2018-12-11T22:25:30.216Z,2.70
2018-12-11T22:27:38.876Z,2.60
2018-12-11T22:29:42.966Z,2.60
2018-12-11T22:31:46.868Z,2.60
2018-12-11T22:33:55.688Z,2.60
2018-12-11T22:35:59.857Z,2.60
2018-12-11T22:38:08.385Z,2.50
2018-12-11T22:40:17.000Z,2.40
2018-12-11T22:44:30.760Z,2.20
2018-12-11T22:46:39.725Z,2.20
2018-12-11T22:48:49.719Z,2.10
2018-12-11T22:50:53.779Z,2.10
2018-12-11T22:52:59.339Z,2.20
2018-12-11T22:55:03.556Z,2.30
2018-12-11T22:57:07.330Z,2.20
2018-12-11T22:59:16.124Z,2.20
2018-12-11T23:01:19.905Z,2.20
2018-12-11T23:03:23.560Z,2.20
2018-12-11T23:05:32.316Z,2.20
2018-12-11T23:07:41.172Z,2.20
2018-12-11T23:09:50.075Z,2.30
2018-12-11T23:11:59.091Z,2.40
2018-12-11T23:14:07.810Z,2.30
2018-12-11T23:16:13.972Z,2.40
2018-12-11T23:18:22.774Z,2.30
2018-12-11T23:20:31.653Z,2.30
2018-12-11T23:22:40.299Z,2.30
2018-12-11T23:24:44.707Z,2.20
2018-12-11T23:26:53.435Z,2.20
2018-12-11T23:28:57.535Z,2.20
2018-12-11T23:31:07.283Z,2.20
2018-12-11T23:33:11.623Z,2.20
2018-12-11T23:35:20.472Z,2.10
2018-12-11T23:37:26.496Z,2.00
2018-12-11T23:39:35.299Z,2.00
2018-12-11T23:41:39.455Z,2.00
2018-12-11T23:47:52.374Z,2.20
2018-12-11T23:49:56.344Z,2.30
2018-12-11T23:52:04.994Z,2.30
2018-12-11T23:54:09.285Z,2.30
2018-12-11T23:56:13.276Z,2.40
2018-12-11T23:58:17.191Z,2.40
